Time;durP1;ratioP1;P1;durP2;ratioP2;P2;SDS_P1;SDS_P2;PMS_P1;PMS_P2;Temp;Humidity;BMP_temperature;BMP_pressure;BME280_temperature;BME280_humidity;BME280_pressure;Samples;Min_cycle;Max_cycle;Signal;HPM_P1;HPM_P2
2023/09/20 00:00:29;;;;;;;3.80;2.63;;;18.10;1.00;;;;;;4987259;28;20438;-76
2023/09/20 00:02:55;;;;;;;3.90;2.47;;;18.10;1.00;;;;;;4987752;28;20469;-76
2023/09/20 00:05:21;;;;;;;3.27;2.53;;;18.00;1.00;;;;;;4987215;28;20808;-77
2023/09/20 00:07:50;;;;;;;3.30;2.50;;;18.00;1.00;;;;;;4987910;28;20193;-74
2023/09/20 00:10:18;;;;;;;5.93;2.40;;;17.90;1.00;;;;;;4986668;28;20960;-76
2023/09/20 00:12:44;;;;;;;3.87;2.70;;;17.90;1.00;;;;;;4984670;28;20512;-75
2023/09/20 00:15:10;;;;;;;4.53;2.70;;;17.70;1.00;;;;;;4987305;28;20517;-74
2023/09/20 00:17:37;;;;;;;3.70;2.40;;;17.70;1.00;;;;;;4986523;28;20430;-75
2023/09/20 00:20:06;;;;;;;4.43;2.63;;;17.70;1.00;;;;;;4986793;28;20434;-77
2023/09/20 00:22:31;;;;;;;4.10;2.30;;;17.60;1.00;;;;;;4985210;28;20456;-74
2023/09/20 00:24:59;;;;;;;3.40;2.03;;;17.60;1.00;;;;;;4985379;28;20430;-77
2023/09/20 00:27:25;;;;;;;2.87;2.23;;;17.90;1.00;;;;;;4988080;28;20167;-75
2023/09/20 00:29:50;;;;;;;4.07;2.20;;;17.60;1.00;;;;;;4986720;28;20528;-74
2023/09/20 00:32:17;;;;;;;4.03;2.77;;;17.80;1.00;;;;;;4987463;28;20176;-74
2023/09/20 00:34:42;;;;;;;9.83;2.63;;;17.80;1.00;;;;;;4987339;28;20269;-76
2023/09/20 00:37:08;;;;;;;3.10;2.10;;;17.90;1.00;;;;;;4987779;28;20894;-76
2023/09/20 00:39:33;;;;;;;5.17;2.40;;;18.00;1.00;;;;;;4986270;28;20187;-74
2023/09/20 00:41:59;;;;;;;3.10;2.30;;;18.00;1.00;;;;;;4986487;28;20263;-76
2023/09/20 00:44:25;;;;;;;2.53;2.10;;;18.10;1.00;;;;;;4986811;28;20203;-74
2023/09/20 00:46:52;;;;;;;4.33;2.50;;;18.10;1.00;;;;;;4986746;28;20199;-75
2023/09/20 00:49:19;;;;;;;3.13;2.50;;;18.20;1.00;;;;;;4987211;28;20434;-74
2023/09/20 00:51:47;;;;;;;3.47;2.30;;;18.20;1.00;;;;;;4987316;28;20422;-74
2023/09/20 00:54:14;;;;;;;4.50;2.20;;;18.30;1.00;;;;;;4985944;28;20521;-74
2023/09/20 00:56:40;;;;;;;5.50;2.57;;;18.30;1.00;;;;;;4987286;28;20474;-74
2023/09/20 00:59:07;;;;;;;3.87;2.20;;;18.20;1.00;;;;;;4988292;28;20473;-74
2023/09/20 01:01:33;;;;;;;5.17;2.77;;;18.20;1.00;;;;;;4988646;28;20190;-76
2023/09/20 01:04:00;;;;;;;4.40;2.80;;;18.30;1.00;;;;;;4986294;28;20470;-77
2023/09/20 01:06:29;;;;;;;4.37;2.73;;;18.30;1.00;;;;;;4990472;28;20471;-74
2023/09/20 01:08:55;;;;;;;5.50;2.70;;;18.30;1.00;;;;;;4988520;28;20461;-76
2023/09/20 01:11:21;;;;;;;5.07;2.77;;;18.20;1.00;;;;;;4985231;28;20460;-74
2023/09/20 01:13:47;;;;;;;4.70;2.57;;;18.20;1.00;;;;;;4990992;28;20932;-74
2023/09/20 01:16:16;;;;;;;6.17;2.53;;;18.10;1.00;;;;;;4991247;28;20505;-75
2023/09/20 01:18:44;;;;;;;5.47;2.63;;;18.10;1.00;;;;;;4973713;28;20179;-74
2023/09/20 01:21:11;;;;;;;6.47;2.47;;;18.00;1.00;;;;;;4992144;28;20423;-75
2023/09/20 01:23:38;;;;;;;3.63;2.57;;;18.10;1.00;;;;;;4991684;28;20687;-77
2023/09/20 01:26:04;;;;;;;3.73;2.50;;;18.00;1.00;;;;;;4991271;28;20805;-77
2023/09/20 01:28:30;;;;;;;2.80;2.30;;;18.00;1.00;;;;;;4992243;28;20516;-75
2023/09/20 01:30:58;;;;;;;3.67;2.63;;;18.00;1.00;;;;;;4991725;28;20489;-75
2023/09/20 01:33:24;;;;;;;6.40;2.50;;;17.90;1.00;;;;;;4991300;28;20182;-74
2023/09/20 01:35:50;;;;;;;3.77;2.73;;;17.80;1.00;;;;;;4988617;28;20947;-75
2023/09/20 01:38:15;;;;;;;4.20;2.40;;;17.80;1.00;;;;;;4991745;28;20410;-74
2023/09/20 01:40:41;;;;;;;3.67;2.30;;;17.70;1.00;;;;;;4990956;28;20545;-73
2023/09/20 01:43:06;;;;;;;3.73;2.33;;;17.70;1.00;;;;;;4990574;28;20210;-78
2023/09/20 01:45:34;;;;;;;4.33;2.70;;;17.60;1.00;;;;;;4991430;28;20206;-74
2023/09/20 01:48:00;;;;;;;4.70;2.53;;;17.60;1.00;;;;;;4990465;28;20183;-74
2023/09/20 01:50:27;;;;;;;3.80;2.47;;;17.50;1.00;;;;;;4990467;28;20435;-76
2023/09/20 01:52:57;;;;;;;4.37;2.40;;;17.40;1.00;;;;;;4989637;28;20434;-74
2023/09/20 01:55:24;;;;;;;3.47;2.60;;;17.40;1.00;;;;;;4989221;28;20767;-75
2023/09/20 01:57:56;;;;;;;3.57;2.60;;;17.40;1.00;;;;;;4990966;28;20727;-74
2023/09/20 02:00:33;;;;;;;4.93;2.80;;;17.30;1.00;;;;;;4990750;28;20465;-75
2023/09/20 02:03:00;;;;;;;8.13;2.40;;;17.30;1.00;;;;;;4991289;28;20461;-75
2023/09/20 02:05:27;;;;;;;3.20;2.53;;;17.20;1.00;;;;;;4991067;28;20747;-75
2023/09/20 02:07:54;;;;;;;3.77;2.40;;;17.90;1.00;;;;;;4990601;28;20476;-75
2023/09/20 02:10:21;;;;;;;5.13;2.27;;;17.20;1.00;;;;;;4990324;28;21034;-75
2023/09/20 02:12:48;;;;;;;7.60;2.73;;;17.30;1.00;;;;;;4989736;28;20434;-75
2023/09/20 02:15:14;;;;;;;3.70;2.50;;;17.20;1.00;;;;;;4982832;28;20433;-73
2023/09/20 02:17:41;;;;;;;3.47;2.80;;;17.30;1.00;;;;;;4989819;28;20469;-75
2023/09/20 02:20:11;;;;;;;5.33;2.30;;;17.20;1.00;;;;;;4989348;28;20434;-74
2023/09/20 02:22:40;;;;;;;4.50;2.63;;;17.20;1.00;;;;;;4990186;28;20432;-73
2023/09/20 02:25:11;;;;;;;6.37;2.50;;;17.20;1.00;;;;;;4989349;28;20828;-75
2023/09/20 02:27:42;;;;;;;3.73;2.20;;;17.10;1.00;;;;;;4991216;28;20445;-77
2023/09/20 02:30:15;;;;;;;4.00;2.50;;;17.20;1.00;;;;;;4989110;28;20453;-74
2023/09/20 02:32:41;;;;;;;4.10;2.47;;;17.20;1.00;;;;;;4972755;28;20426;-76
2023/09/20 02:35:07;;;;;;;4.67;2.33;;;17.30;1.00;;;;;;4990122;28;20768;-75
2023/09/20 02:37:37;;;;;;;4.30;2.70;;;17.30;1.00;;;;;;4990788;28;20407;-74
2023/09/20 02:40:17;;;;;;;3.40;2.40;;;17.40;1.00;;;;;;4987922;28;20457;-74
2023/09/20 02:42:47;;;;;;;3.20;2.40;;;17.40;1.00;;;;;;4985630;28;20861;-74
2023/09/20 02:45:15;;;;;;;6.90;2.80;;;17.40;1.00;;;;;;4988110;28;20473;-74
2023/09/20 02:47:42;;;;;;;4.00;2.60;;;17.40;1.00;;;;;;4990833;28;20866;-74
2023/09/20 02:50:10;;;;;;;3.17;2.30;;;17.40;1.00;;;;;;4990034;28;20418;-74
2023/09/20 02:52:36;;;;;;;2.90;2.50;;;17.40;1.00;;;;;;4990702;28;20946;-74
2023/09/20 02:55:07;;;;;;;4.20;2.50;;;17.50;1.00;;;;;;4972160;28;20454;-74
2023/09/20 02:57:38;;;;;;;5.20;2.90;;;17.50;1.00;;;;;;4988990;28;20179;-76
2023/09/20 03:00:15;;;;;;;4.37;2.60;;;17.40;1.00;;;;;;4965709;28;20432;-75
2023/09/20 03:02:47;;;;;;;2.80;2.40;;;17.40;1.00;;;;;;4988778;28;20430;-75
2023/09/20 03:05:18;;;;;;;4.50;2.50;;;17.30;1.00;;;;;;4989522;28;20885;-74
2023/09/20 03:07:45;;;;;;;4.67;2.77;;;17.20;1.00;;;;;;4989504;28;20427;-74
2023/09/20 03:10:16;;;;;;;6.23;2.33;;;17.80;1.00;;;;;;4989054;28;20532;-77
2023/09/20 03:12:44;;;;;;;6.27;2.70;;;17.10;1.00;;;;;;4988180;28;20430;-75
2023/09/20 03:15:11;;;;;;;3.70;2.40;;;17.20;1.00;;;;;;4987358;28;20537;-75
2023/09/20 03:17:38;;;;;;;5.33;2.53;;;17.20;1.00;;;;;;4971528;28;20766;-77
2023/09/20 03:20:10;;;;;;;3.60;2.60;;;17.10;1.00;;;;;;4988070;28;20435;-74
2023/09/20 03:22:39;;;;;;;2.83;2.20;;;17.10;1.00;;;;;;4987798;28;20952;-75
2023/09/20 03:25:09;;;;;;;5.10;2.60;;;17.00;1.00;;;;;;4987317;28;20493;-75
2023/09/20 03:27:35;;;;;;;4.17;2.70;;;17.00;1.00;;;;;;4988434;28;20772;-75
2023/09/20 03:30:02;;;;;;;3.30;2.37;;;17.00;1.00;;;;;;4970347;28;20525;-75
2023/09/20 03:32:28;;;;;;;4.03;2.10;;;17.00;1.00;;;;;;4985915;28;20449;-74
2023/09/20 03:34:55;;;;;;;3.03;2.40;;;17.00;1.00;;;;;;4986361;28;20556;-78
2023/09/20 03:37:21;;;;;;;5.43;2.60;;;17.00;1.00;;;;;;4985904;28;20437;-75
2023/09/20 03:39:48;;;;;;;2.93;2.43;;;17.00;1.00;;;;;;4985968;28;20438;-75
2023/09/20 03:42:13;;;;;;;5.23;2.53;;;17.00;1.00;;;;;;4986728;28;20431;-75
2023/09/20 03:44:39;;;;;;;10.33;2.70;;;17.00;1.00;;;;;;4982073;28;20477;-74
2023/09/20 03:47:05;;;;;;;4.63;2.43;;;17.10;1.00;;;;;;4987633;28;20227;-77
2023/09/20 03:49:31;;;;;;;4.20;2.53;;;17.10;1.00;;;;;;4987256;28;20180;-74
2023/09/20 03:52:00;;;;;;;3.43;2.43;;;17.10;1.00;;;;;;4986154;28;20500;-75
2023/09/20 03:54:25;;;;;;;5.03;2.90;;;17.10;1.00;;;;;;4987978;28;20179;-74
2023/09/20 03:56:51;;;;;;;4.63;2.67;;;17.10;1.00;;;;;;4986119;28;20953;-74
2023/09/20 03:59:17;;;;;;;4.67;2.60;;;17.00;1.00;;;;;;4987243;28;20206;-77
2023/09/20 04:01:43;;;;;;;5.53;2.57;;;17.00;1.00;;;;;;4986701;28;20250;-77
2023/09/20 04:04:08;;;;;;;5.13;2.50;;;16.90;1.00;;;;;;4986048;28;20923;-74
2023/09/20 04:06:34;;;;;;;4.63;2.60;;;16.80;1.00;;;;;;4987058;28;20678;-75
2023/09/20 04:09:09;;;;;;;4.17;2.30;;;16.90;1.00;;;;;;4983274;28;20230;-72
2023/09/20 04:11:39;;;;;;;4.10;2.13;;;17.00;1.00;;;;;;4988111;28;20467;-75
2023/09/20 04:14:07;;;;;;;3.50;2.20;;;17.00;1.00;;;;;;4985909;28;20438;-73
2023/09/20 04:16:33;;;;;;;3.03;2.33;;;17.00;1.00;;;;;;4986065;28;20504;-74
2023/09/20 04:18:59;;;;;;;3.50;2.57;;;17.00;1.00;;;;;;4985852;28;20438;-74
2023/09/20 04:21:24;;;;;;;3.40;2.27;;;17.00;1.00;;;;;;4987181;28;20181;-74
2023/09/20 04:23:50;;;;;;;3.63;2.43;;;16.90;1.00;;;;;;4966278;28;20471;-74
2023/09/20 04:26:15;;;;;;;2.93;2.40;;;17.10;1.00;;;;;;4985273;28;20498;-74
2023/09/20 04:28:41;;;;;;;3.50;2.30;;;17.10;1.00;;;;;;4985930;28;20653;-74
2023/09/20 04:31:08;;;;;;;4.83;2.60;;;17.10;1.00;;;;;;4986152;28;20175;-77
2023/09/20 04:33:35;;;;;;;3.70;2.90;;;17.10;1.00;;;;;;4986507;28;20266;-75
2023/09/20 04:36:04;;;;;;;3.73;2.57;;;17.10;1.00;;;;;;4987310;28;20451;-77
2023/09/20 04:38:30;;;;;;;3.60;2.87;;;17.10;1.00;;;;;;4985802;28;20558;-74
2023/09/20 04:40:56;;;;;;;4.83;2.57;;;17.10;1.00;;;;;;4985617;28;20972;-75
2023/09/20 04:43:22;;;;;;;3.33;2.50;;;17.10;1.00;;;;;;4986999;28;20994;-74
2023/09/20 04:45:47;;;;;;;4.50;2.80;;;17.10;1.00;;;;;;4988544;28;20458;-75
2023/09/20 04:48:13;;;;;;;4.10;2.10;;;17.10;1.00;;;;;;4990354;28;20175;-72
2023/09/20 04:50:38;;;;;;;3.37;2.63;;;17.10;1.00;;;;;;4973012;28;20325;-75
2023/09/20 04:53:04;;;;;;;3.70;2.63;;;17.10;1.00;;;;;;4972603;28;20578;-72
2023/09/20 04:55:33;;;;;;;4.33;2.40;;;17.00;1.00;;;;;;4989465;28;20203;-75
2023/09/20 04:58:02;;;;;;;5.60;2.37;;;17.00;1.00;;;;;;4987597;28;20659;-74
2023/09/20 05:00:33;;;;;;;3.83;2.30;;;16.90;1.00;;;;;;4990845;28;20501;-74
2023/09/20 05:03:00;;;;;;;4.87;2.37;;;16.90;1.00;;;;;;4988538;28;20512;-75
2023/09/20 05:05:26;;;;;;;2.80;2.17;;;16.90;1.00;;;;;;4972959;28;20801;-74
2023/09/20 05:07:52;;;;;;;4.93;2.70;;;16.90;1.00;;;;;;4990420;28;21059;-76
2023/09/20 05:10:18;;;;;;;3.70;2.57;;;16.80;1.00;;;;;;4987574;28;20179;-74
2023/09/20 05:12:43;;;;;;;3.63;2.57;;;17.00;1.00;;;;;;4989258;28;20531;-74
2023/09/20 05:15:12;;;;;;;3.30;2.40;;;17.10;1.00;;;;;;4988450;28;20202;-75
2023/09/20 05:17:39;;;;;;;4.50;2.60;;;17.10;1.00;;;;;;4990176;28;20182;-74
2023/09/20 05:20:06;;;;;;;3.90;2.57;;;17.00;1.00;;;;;;4989465;28;20437;-74
2023/09/20 05:22:31;;;;;;;3.80;2.57;;;17.10;1.00;;;;;;4987057;28;21021;-76
2023/09/20 05:24:57;;;;;;;4.97;2.50;;;17.20;1.00;;;;;;4988238;28;20461;-77
2023/09/20 05:27:23;;;;;;;5.83;2.77;;;17.20;1.00;;;;;;4989999;28;20541;-76
2023/09/20 05:29:50;;;;;;;4.20;2.90;;;17.20;1.00;;;;;;4988327;28;20684;-75
2023/09/20 05:32:16;;;;;;;3.13;2.53;;;17.30;1.00;;;;;;4991402;28;20546;-73
2023/09/20 05:34:46;;;;;;;6.23;2.43;;;17.30;1.00;;;;;;4988499;28;20434;-77
2023/09/20 05:37:12;;;;;;;2.50;2.20;;;17.30;1.00;;;;;;4985527;28;20195;-77
2023/09/20 05:39:38;;;;;;;6.90;2.70;;;17.40;1.00;;;;;;4991264;28;20465;-74
2023/09/20 05:42:05;;;;;;;4.30;2.50;;;17.40;1.00;;;;;;4989435;28;20646;-73
2023/09/20 05:44:31;;;;;;;3.43;2.60;;;17.40;1.00;;;;;;4989207;28;20804;-75
2023/09/20 05:46:57;;;;;;;4.90;2.63;;;17.50;1.00;;;;;;4988038;28;20725;-75
2023/09/20 05:49:23;;;;;;;4.33;2.20;;;17.60;1.00;;;;;;4990447;28;20442;-75
2023/09/20 05:51:50;;;;;;;4.53;2.43;;;17.70;1.00;;;;;;4991378;28;20202;-75
2023/09/20 05:54:19;;;;;;;2.90;2.50;;;17.70;1.00;;;;;;4968387;28;20187;-76
2023/09/20 05:56:45;;;;;;;6.93;2.33;;;17.90;1.00;;;;;;4989431;28;20462;-75
2023/09/20 05:59:11;;;;;;;4.33;2.87;;;17.90;1.00;;;;;;4989782;28;20444;-73
2023/09/20 06:01:40;;;;;;;7.37;2.67;;;18.00;1.00;;;;;;4974020;28;20434;-78
2023/09/20 06:04:07;;;;;;;6.20;2.50;;;18.00;1.00;;;;;;4977534;28;20441;-74
2023/09/20 06:06:33;;;;;;;5.00;2.60;;;18.10;1.00;;;;;;4986630;28;20270;-77
2023/09/20 06:08:59;;;;;;;4.23;2.50;;;18.20;1.00;;;;;;4985420;28;22334;-77
2023/09/20 06:11:25;;;;;;;3.67;2.40;;;18.20;1.00;;;;;;4986630;28;20265;-73
2023/09/20 06:13:51;;;;;;;5.10;2.70;;;18.30;1.00;;;;;;4987455;28;20198;-72
2023/09/20 06:16:17;;;;;;;3.80;2.30;;;18.30;1.00;;;;;;4988471;28;20488;-73
2023/09/20 06:18:43;;;;;;;4.67;2.50;;;18.30;1.00;;;;;;4989106;28;20470;-73
2023/09/20 06:21:09;;;;;;;8.70;2.77;;;18.70;1.00;;;;;;4987368;28;20187;-75
2023/09/20 06:23:34;;;;;;;4.60;2.50;;;19.20;1.00;;;;;;4989110;28;20709;-72
2023/09/20 06:26:07;;;;;;;4.60;2.70;;;19.70;1.00;;;;;;4986084;28;20290;-73
2023/09/20 06:28:33;;;;;;;3.93;2.20;;;19.80;1.00;;;;;;4986351;28;20179;-73
2023/09/20 06:30:59;;;;;;;5.30;2.30;;;19.80;1.00;;;;;;4988389;28;20488;-72
2023/09/20 06:33:24;;;;;;;5.53;2.80;;;20.00;1.00;;;;;;4988546;28;20585;-75
2023/09/20 06:35:50;;;;;;;4.83;2.90;;;20.10;1.00;;;;;;4987109;28;20214;-74
2023/09/20 06:38:16;;;;;;;5.10;2.50;;;20.20;1.00;;;;;;4987508;28;20211;-74
2023/09/20 06:40:50;;;;;;;6.10;2.83;;;20.20;1.00;;;;;;4989999;28;20798;-72
2023/09/20 06:43:16;;;;;;;9.07;2.57;;;20.20;1.00;;;;;;4987426;28;20260;-72
2023/09/20 06:45:50;;;;;;;4.50;2.30;;;20.30;1.00;;;;;;4992730;28;20493;-72
2023/09/20 06:48:22;;;;;;;4.50;2.60;;;20.40;1.00;;;;;;4986390;28;20763;-71
2023/09/20 06:50:52;;;;;;;4.07;2.40;;;20.40;1.00;;;;;;4989506;28;20808;-74
2023/09/20 06:53:18;;;;;;;3.40;2.30;;;20.40;1.00;;;;;;4987094;28;20438;-72
2023/09/20 06:55:47;;;;;;;4.67;2.43;;;20.30;1.00;;;;;;4967204;28;20544;-71
2023/09/20 06:58:13;;;;;;;3.97;2.27;;;20.30;1.00;;;;;;4986606;28;20438;-74
2023/09/20 07:00:39;;;;;;;4.30;2.23;;;23.50;1.00;;;;;;4988263;28;20465;-71
2023/09/20 07:03:05;;;;;;;4.23;2.33;;;20.60;1.00;;;;;;4987268;28;20206;-75
2023/09/20 07:05:31;;;;;;;4.13;2.03;;;20.60;1.00;;;;;;4987230;28;20252;-74
2023/09/20 07:08:00;;;;;;;4.13;2.47;;;20.70;1.00;;;;;;4989777;28;20462;-75
2023/09/20 07:10:29;;;;;;;6.40;2.53;;;20.60;1.00;;;;;;4989768;28;20186;-75
2023/09/20 07:12:55;;;;;;;3.97;2.47;;;20.50;1.00;;;;;;4988012;28;20491;-75
2023/09/20 07:15:24;;;;;;;5.90;2.40;;;20.50;1.00;;;;;;4991343;28;20454;-74
2023/09/20 07:17:58;;;;;;;5.03;2.27;;;20.50;1.00;;;;;;4985880;28;20174;-74
2023/09/20 07:20:28;;;;;;;4.80;2.40;;;20.50;1.00;;;;;;4987150;28;20843;-72
2023/09/20 07:22:54;;;;;;;7.80;2.30;;;20.60;1.00;;;;;;4989373;28;20470;-76
2023/09/20 07:25:21;;;;;;;4.83;2.80;;;20.70;1.00;;;;;;4989730;28;20832;-74
2023/09/20 07:27:47;;;;;;;4.00;2.37;;;21.20;1.00;;;;;;4988489;28;20540;-73
2023/09/20 07:30:21;;;;;;;4.87;2.20;;;23.50;1.00;;;;;;4988254;28;20450;-73
2023/09/20 07:32:48;;;;;;;3.87;2.20;;;23.40;1.00;;;;;;4987590;28;20428;-74
2023/09/20 07:35:25;;;;;;;4.43;2.47;;;24.40;1.00;;;;;;4988830;28;20935;-73
2023/09/20 07:37:58;;;;;;;6.23;2.40;;;25.00;1.00;;;;;;4984036;28;20434;-77
2023/09/20 07:40:30;;;;;;;4.53;2.20;;;25.70;1.00;;;;;;4986907;28;20436;-74
2023/09/20 07:43:03;;;;;;;6.67;2.80;;;26.20;1.00;;;;;;4984489;28;20493;-72
2023/09/20 07:45:38;;;;;;;3.60;2.20;;;26.60;1.00;;;;;;4985626;28;20210;-78
2023/09/20 07:48:12;;;;;;;8.60;2.40;;;26.90;1.00;;;;;;4987700;28;20185;-73
2023/09/20 07:50:41;;;;;;;3.72;2.05;;;27.40;1.00;;;;;;4988555;28;20892;-75
2023/09/20 07:53:14;;;;;;;5.03;2.50;;;28.00;1.00;;;;;;4988323;28;20240;-74
2023/09/20 07:55:41;;;;;;;3.95;2.30;;;28.70;1.00;;;;;;4989550;28;20269;-74
2023/09/20 07:58:08;;;;;;;6.10;2.33;;;28.90;1.00;;;;;;4986610;28;20182;-77
2023/09/20 08:00:41;;;;;;;5.18;2.60;;;29.60;1.00;;;;;;4988650;28;20189;-74
2023/09/20 08:03:07;;;;;;;5.88;2.30;;;29.40;1.00;;;;;;4970907;28;20285;-75
2023/09/20 08:05:33;;;;;;;5.32;2.40;;;29.00;1.00;;;;;;4988239;28;20205;-73
2023/09/20 08:07:59;;;;;;;6.32;2.38;;;28.90;1.00;;;;;;4968580;28;20197;-77
2023/09/20 08:10:25;;;;;;;5.40;2.70;;;28.60;1.00;;;;;;4988485;28;20257;-73
2023/09/20 08:12:51;;;;;;;6.10;2.60;;;28.20;1.00;;;;;;4988546;28;20274;-76
2023/09/20 08:15:16;;;;;;;3.75;2.22;;;28.10;1.00;;;;;;4986453;28;20977;-72
2023/09/20 08:20:27;;;;;;;4.68;2.15;;;27.90;1.00;;;;;;4992137;28;20248;-75
2023/09/20 09:01:38;;;;;;;5.17;2.40;;;27.30;1.00;;;;;;4996122;28;20193;-76
2023/09/20 09:04:08;;;;;;;7.40;2.57;;;27.30;1.00;;;;;;4997278;28;20190;-76
2023/09/20 09:06:34;;;;;;;6.93;2.47;;;28.00;1.00;;;;;;4991471;28;20292;-75
2023/09/20 09:09:02;;;;;;;3.47;2.00;;;;;;;;;;4994737;28;20905;-77
2023/09/20 09:11:28;;;;;;;5.13;2.30;;;28.30;1.00;;;;;;4978586;28;20255;-77
2023/09/20 09:13:57;;;;;;;4.80;2.20;;;28.50;1.00;;;;;;4976935;28;20189;-76
2023/09/20 09:16:24;;;;;;;7.50;2.50;;;28.40;1.00;;;;;;4992245;28;20194;-77
2023/09/20 09:18:49;;;;;;;6.67;2.10;;;27.80;1.00;;;;;;4994177;28;20183;-78
2023/09/20 09:21:17;;;;;;;4.50;2.47;;;27.50;1.00;;;;;;4996315;28;20263;-77
2023/09/20 09:23:45;;;;;;;9.33;2.10;;;27.40;1.00;;;;;;4994345;28;20241;-75
2023/09/20 09:26:12;;;;;;;4.10;2.40;;;27.30;1.00;;;;;;4997153;28;20190;-76
2023/09/20 09:28:40;;;;;;;7.20;2.97;;;27.40;1.00;;;;;;4995915;28;20675;-77
2023/09/20 09:31:08;;;;;;;4.87;2.60;;;27.60;1.00;;;;;;4993943;28;20175;-77
2023/09/20 09:33:35;;;;;;;4.10;2.30;;;28.40;1.00;;;;;;4992926;28;20206;-75
2023/09/20 09:36:02;;;;;;;5.90;2.78;;;30.40;1.00;;;;;;4975730;28;20696;-76
2023/09/20 09:38:28;;;;;;;4.78;2.47;;;30.90;1.00;;;;;;4992368;28;20269;-76
2023/09/20 09:40:58;;;;;;;7.03;2.42;;;31.80;1.00;;;;;;4995834;28;20364;-76
2023/09/20 09:43:23;;;;;;;5.53;2.20;;;32.10;1.00;;;;;;4995818;28;20275;-76
2023/09/20 09:45:50;;;;;;;4.45;2.00;;;33.90;1.00;;;;;;4991819;28;20616;-73
2023/09/20 09:48:16;;;;;;;4.10;2.15;;;34.10;1.00;;;;;;4998424;28;20183;-74
2023/09/20 09:50:46;;;;;;;7.35;2.47;;;35.20;1.00;;;;;;4995358;28;20181;-76
2023/09/20 09:53:13;;;;;;;3.50;2.30;;;35.10;1.00;;;;;;4995209;28;20187;-75
2023/09/20 09:55:40;;;;;;;3.55;2.22;;;35.10;1.00;;;;;;4996229;28;20213;-78
2023/09/20 09:58:05;;;;;;;4.90;2.30;;;35.40;1.00;;;;;;4993005;28;20178;-77
2023/09/20 10:00:33;;;;;;;5.10;2.08;;;34.20;1.00;;;;;;4996022;28;20537;-74
2023/09/20 10:03:10;;;;;;;3.90;2.10;;;34.00;1.00;;;;;;4996462;28;20696;-76
2023/09/20 10:05:38;;;;;;;6.03;2.30;;;34.40;1.00;;;;;;4979257;28;20202;-75
2023/09/20 10:08:05;;;;;;;3.97;2.38;;;34.70;1.00;;;;;;4978047;28;20282;-77
2023/09/20 10:10:31;;;;;;;5.00;2.42;;;34.70;1.00;;;;;;4994701;28;20320;-76
2023/09/20 10:12:57;;;;;;;3.50;2.30;;;34.70;1.00;;;;;;4994740;28;20199;-74
2023/09/20 10:15:24;;;;;;;5.68;2.38;;;35.70;1.00;;;;;;4995301;28;20195;-77
2023/09/20 10:17:59;;;;;;;3.92;2.10;;;36.00;1.00;;;;;;4995382;28;20202;-77
2023/09/20 10:21:04;;;;;;;3.45;2.10;;;35.70;1.00;;;;;;4994285;28;20261;-75
2023/09/20 10:23:31;;;;;;;5.45;2.20;;;35.40;1.00;;;;;;4994915;28;21013;-76
2023/09/20 10:26:00;;;;;;;7.82;2.35;;;35.50;1.00;;;;;;4995302;28;20198;-77
2023/09/20 10:28:26;;;;;;;5.00;2.20;;;35.70;1.00;;;;;;4978889;28;20724;-75
2023/09/20 10:31:01;;;;;;;4.30;1.85;;;36.30;1.00;;;;;;4987906;28;20186;-74
2023/09/20 10:33:51;;;;;;;6.07;2.05;;;35.10;1.00;;;;;;4989186;28;20561;-74
2023/09/20 10:36:19;;;;;;;5.85;2.40;;;33.70;1.00;;;;;;4988138;28;20202;-76
2023/09/20 10:38:46;;;;;;;3.53;1.92;;;33.50;1.00;;;;;;4988087;28;20178;-76
2023/09/20 10:41:12;;;;;;;3.85;1.95;;;32.80;1.00;;;;;;4989871;28;20182;-72
2023/09/20 10:43:38;;;;;;;6.20;1.85;;;33.70;1.00;;;;;;4986730;28;20210;-75
2023/09/20 10:46:09;;;;;;;4.13;2.30;;;35.50;1.00;;;;;;4988334;28;20195;-76
2023/09/20 10:48:39;;;;;;;4.90;2.00;;;36.10;1.00;;;;;;4989257;28;20185;-77
2023/09/20 10:51:07;;;;;;;3.47;2.10;;;35.20;1.00;;;;;;4995042;28;21469;-74
2023/09/20 10:53:41;;;;;;;5.45;2.10;;;35.40;1.00;;;;;;4991657;28;20182;-76
2023/09/20 10:56:08;;;;;;;3.60;1.90;;;35.00;1.00;;;;;;4987056;28;20197;-72
2023/09/20 10:58:34;;;;;;;8.35;2.22;;;35.80;1.00;;;;;;4992501;28;20652;-75
2023/09/20 11:01:03;;;;;;;6.15;2.00;;;35.40;1.00;;;;;;4993501;28;20199;-74
2023/09/20 11:03:29;;;;;;;3.42;1.65;;;35.30;1.00;;;;;;4977293;28;20209;-75
2023/09/20 11:05:55;;;;;;;3.45;1.80;;;36.80;1.00;;;;;;4993280;28;20575;-75
2023/09/20 11:08:24;;;;;;;3.88;1.83;;;37.10;1.00;;;;;;4991981;28;20175;-74
2023/09/20 11:10:50;;;;;;;3.88;1.60;;;36.00;1.00;;;;;;4994053;28;20552;-74
2023/09/20 11:13:19;;;;;;;4.95;2.10;;;37.30;1.00;;;;;;4993578;28;20186;-74
2023/09/20 11:15:46;;;;;;;4.05;1.75;;;38.50;1.00;;;;;;4992173;28;20210;-75
2023/09/20 11:18:15;;;;;;;4.53;1.98;;;38.40;1.00;;;;;;4991156;28;20585;-74
2023/09/20 11:20:42;;;;;;;3.28;1.60;;;38.10;1.00;;;;;;4986746;28;20382;-77
2023/09/20 11:23:09;;;;;;;4.20;2.00;;;38.40;1.00;;;;;;4988011;28;20178;-73
2023/09/20 11:25:35;;;;;;;3.55;1.70;;;37.00;1.00;;;;;;4986042;28;20222;-74
2023/09/20 11:28:00;;;;;;;3.10;1.85;;;37.40;1.00;;;;;;4986833;28;20272;-74
2023/09/20 11:30:27;;;;;;;3.88;1.65;;;38.20;1.00;;;;;;4992286;28;20197;-75
2023/09/20 11:32:56;;;;;;;3.53;1.67;;;39.10;1.00;;;;;;4993291;28;20269;-74
2023/09/20 11:35:37;;;;;;;3.53;1.63;;;39.30;1.00;;;;;;4994241;28;20341;-76
2023/09/20 11:38:07;;;;;;;3.17;1.50;;;39.40;1.00;;;;;;4991430;28;20206;-73
2023/09/20 11:40:36;;;;;;;3.28;1.77;;;39.90;1.00;;;;;;4987892;28;20616;-71
2023/09/20 11:43:06;;;;;;;3.65;1.85;;;40.60;1.00;;;;;;4987267;28;20185;-77
2023/09/20 11:45:34;;;;;;;4.22;1.70;;;39.80;1.00;;;;;;4988367;28;20682;-73
2023/09/20 11:48:05;;;;;;;3.10;1.35;;;39.60;1.00;;;;;;4989578;28;20264;-75
2023/09/20 11:50:31;;;;;;;3.30;1.50;;;39.60;1.00;;;;;;4973168;28;20268;-74
2023/09/20 11:52:57;;;;;;;4.40;1.90;;;38.90;1.00;;;;;;4988935;28;20210;-76
2023/09/20 11:55:23;;;;;;;3.00;1.52;;;39.70;1.00;;;;;;4988309;28;21098;-75
2023/09/20 11:57:48;;;;;;;3.42;1.70;;;40.00;1.00;;;;;;4989794;28;20198;-75
2023/09/20 12:00:18;;;;;;;2.97;1.55;;;40.90;1.00;;;;;;4989483;28;20277;-74
2023/09/20 12:02:45;;;;;;;2.80;1.60;;;41.30;1.00;;;;;;4991057;28;20564;-75
2023/09/20 12:05:11;;;;;;;4.18;1.90;;;40.10;1.00;;;;;;4991682;28;20596;-76
2023/09/20 12:07:37;;;;;;;3.53;1.88;;;40.10;1.00;;;;;;4994563;28;20191;-75
2023/09/20 12:10:03;;;;;;;3.15;1.52;;;40.30;1.00;;;;;;4992297;28;20196;-73
2023/09/20 12:12:31;;;;;;;3.90;1.75;;;40.60;1.00;;;;;;4992611;28;20178;-74
2023/09/20 12:14:57;;;;;;;4.20;1.90;;;40.40;1.00;;;;;;4993782;28;20269;-74
2023/09/20 12:17:22;;;;;;;3.13;1.83;;;40.40;1.00;;;;;;4976461;28;20198;-76
2023/09/20 12:19:48;;;;;;;3.95;1.52;;;41.50;1.00;;;;;;4993708;28;20266;-75
2023/09/20 12:22:14;;;;;;;4.05;1.75;;;41.30;1.00;;;;;;4991546;28;20214;-75
2023/09/20 12:24:39;;;;;;;2.95;1.60;;;41.20;1.00;;;;;;4992810;28;20213;-76
2023/09/20 12:27:05;;;;;;;3.17;1.70;;;40.60;1.00;;;;;;4991846;28;20206;-77
2023/09/20 12:29:31;;;;;;;5.72;1.80;;;40.10;1.00;;;;;;4991129;28;20205;-74
2023/09/20 12:31:56;;;;;;;3.17;1.70;;;40.30;1.00;;;;;;4991875;28;20241;-74
2023/09/20 12:34:22;;;;;;;3.25;1.70;;;40.70;1.00;;;;;;4992623;28;20261;-76
2023/09/20 12:36:48;;;;;;;2.80;1.60;;;40.50;1.00;;;;;;4990688;28;20202;-76
2023/09/20 12:39:14;;;;;;;2.70;1.60;;;39.90;1.00;;;;;;4975462;28;20237;-74
2023/09/20 12:41:42;;;;;;;6.68;2.00;;;40.10;1.00;;;;;;4994266;28;20530;-74
2023/09/20 12:44:08;;;;;;;3.10;1.70;;;39.80;1.00;;;;;;4990956;28;20206;-74
2023/09/20 12:46:36;;;;;;;3.28;1.73;;;39.60;1.00;;;;;;4993521;28;20202;-74
2023/09/20 12:49:02;;;;;;;3.05;1.50;;;39.80;1.00;;;;;;4984817;28;20186;-73
2023/09/20 12:51:27;;;;;;;3.17;1.65;;;40.00;1.00;;;;;;4984726;28;20182;-72
2023/09/20 12:53:53;;;;;;;3.50;1.70;;;40.30;1.00;;;;;;4987075;28;20202;-75
2023/09/20 12:56:19;;;;;;;2.80;1.60;;;41.40;1.00;;;;;;4986532;28;20210;-74
2023/09/20 12:58:44;;;;;;;3.13;1.80;;;40.70;1.00;;;;;;4989129;28;20179;-74
2023/09/20 13:01:10;;;;;;;4.43;1.90;;;40.60;1.00;;;;;;4989279;28;20190;-76
2023/09/20 13:03:43;;;;;;;4.38;2.50;;;40.20;1.00;;;;;;4993619;28;20206;-78
2023/09/20 13:06:09;;;;;;;3.75;2.10;;;40.60;1.00;;;;;;4993320;28;22120;-73
2023/09/20 13:08:37;;;;;;;2.90;1.80;;;40.40;1.00;;;;;;4998606;28;20249;-75
2023/09/20 13:11:05;;;;;;;4.18;2.30;;;41.00;1.00;;;;;;4998742;28;20179;-74
2023/09/20 13:13:31;;;;;;;4.30;2.10;;;40.90;1.00;;;;;;4996962;28;20178;-75
2023/09/20 13:15:57;;;;;;;4.55;2.22;;;41.50;1.00;;;;;;4996226;28;20294;-74
2023/09/20 13:18:23;;;;;;;4.60;2.22;;;41.40;1.00;;;;;;4997737;28;20630;-74
2023/09/20 13:20:49;;;;;;;3.35;2.30;;;41.10;1.00;;;;;;4977016;28;20318;-74
2023/09/20 13:23:16;;;;;;;4.07;2.00;;;40.20;1.00;;;;;;4999922;28;20685;-76
2023/09/20 13:25:42;;;;;;;4.00;1.80;;;40.80;1.00;;;;;;4998857;28;20194;-76
2023/09/20 13:28:08;;;;;;;5.15;1.80;;;41.00;1.00;;;;;;4997286;28;20246;-73
2023/09/20 13:30:35;;;;;;;3.63;2.08;;;41.90;1.00;;;;;;5000791;28;20237;-74
2023/09/20 13:33:01;;;;;;;4.60;1.83;;;42.40;1.00;;;;;;4976033;28;20265;-74
2023/09/20 13:35:27;;;;;;;3.50;1.85;;;41.50;1.00;;;;;;5000976;28;20238;-77
2023/09/20 13:37:53;;;;;;;3.78;2.25;;;41.40;1.00;;;;;;4996801;28;20186;-74
2023/09/20 13:40:23;;;;;;;5.03;2.13;;;40.40;1.00;;;;;;4996726;28;20171;-74